sensor_id;sensor_type;location;lat;lon;timestamp;P1;durP1;ratioP1;P2;durP2;ratioP2
63536;SDS011;49686;51.880;5.632;2023-03-11T00:01:08;4.47;;;1.00;;
63536;SDS011;49686;51.880;5.632;2023-03-11T00:03:37;2.20;;;0.85;;
63536;SDS011;49686;51.880;5.632;2023-03-11T00:06:04;4.43;;;1.10;;
63536;SDS011;49686;51.880;5.632;2023-03-11T00:08:31;2.38;;;0.80;;
63536;SDS011;49686;51.880;5.632;2023-03-11T00:10:58;1.50;;;1.00;;
63536;SDS011;49686;51.880;5.632;2023-03-11T00:13:26;1.67;;;0.80;;
63536;SDS011;49686;51.880;5.632;2023-03-11T00:15:54;0.77;;;0.75;;
63536;SDS011;49686;51.880;5.632;2023-03-11T00:18:22;2.28;;;1.00;;
63536;SDS011;49686;51.880;5.632;2023-03-11T00:20:51;1.60;;;0.80;;
63536;SDS011;49686;51.880;5.632;2023-03-11T00:23:19;0.60;;;0.60;;
63536;SDS011;49686;51.880;5.632;2023-03-11T00:25:45;1.83;;;0.52;;
63536;SDS011;49686;51.880;5.632;2023-03-11T00:28:13;0.80;;;0.60;;
63536;SDS011;49686;51.880;5.632;2023-03-11T00:30:40;0.65;;;0.65;;
63536;SDS011;49686;51.880;5.632;2023-03-11T00:33:09;1.08;;;0.68;;
63536;SDS011;49686;51.880;5.632;2023-03-11T00:35:37;1.05;;;0.70;;
63536;SDS011;49686;51.880;5.632;2023-03-11T00:38:05;1.65;;;0.80;;
63536;SDS011;49686;51.880;5.632;2023-03-11T00:40:34;3.00;;;0.93;;
63536;SDS011;49686;51.880;5.632;2023-03-11T00:43:01;1.08;;;0.45;;
63536;SDS011;49686;51.880;5.632;2023-03-11T00:45:29;1.85;;;0.60;;
63536;SDS011;49686;51.880;5.632;2023-03-11T00:47:56;4.82;;;0.82;;
63536;SDS011;49686;51.880;5.632;2023-03-11T00:50:24;1.35;;;0.63;;
63536;SDS011;49686;51.880;5.632;2023-03-11T00:52:53;1.20;;;0.60;;
63536;SDS011;49686;51.880;5.632;2023-03-11T00:55:25;2.40;;;0.70;;
63536;SDS011;49686;51.880;5.632;2023-03-11T00:57:55;2.33;;;0.85;;
63536;SDS011;49686;51.880;5.632;2023-03-11T01:00:23;1.08;;;0.40;;
63536;SDS011;49686;51.880;5.632;2023-03-11T01:02:53;0.65;;;0.40;;
63536;SDS011;49686;51.880;5.632;2023-03-11T01:05:21;1.27;;;0.63;;
63536;SDS011;49686;51.880;5.632;2023-03-11T01:07:51;1.98;;;0.80;;
63536;SDS011;49686;51.880;5.632;2023-03-11T01:10:18;2.38;;;1.05;;
63536;SDS011;49686;51.880;5.632;2023-03-11T01:12:46;1.45;;;0.73;;
63536;SDS011;49686;51.880;5.632;2023-03-11T01:15:15;4.90;;;1.08;;
63536;SDS011;49686;51.880;5.632;2023-03-11T01:17:45;4.97;;;1.10;;
63536;SDS011;49686;51.880;5.632;2023-03-11T01:20:12;3.88;;;1.10;;
63536;SDS011;49686;51.880;5.632;2023-03-11T01:22:40;3.20;;;1.10;;
63536;SDS011;49686;51.880;5.632;2023-03-11T01:25:07;6.55;;;1.10;;
63536;SDS011;49686;51.880;5.632;2023-03-11T01:27:35;4.72;;;1.20;;
63536;SDS011;49686;51.880;5.632;2023-03-11T01:30:04;5.45;;;1.08;;
63536;SDS011;49686;51.880;5.632;2023-03-11T01:32:31;5.72;;;1.45;;
63536;SDS011;49686;51.880;5.632;2023-03-11T01:34:58;5.13;;;1.23;;
63536;SDS011;49686;51.880;5.632;2023-03-11T01:37:25;7.07;;;1.10;;
63536;SDS011;49686;51.880;5.632;2023-03-11T01:39:52;5.38;;;1.40;;
63536;SDS011;49686;51.880;5.632;2023-03-11T01:42:19;1.73;;;0.93;;
63536;SDS011;49686;51.880;5.632;2023-03-11T01:44:45;5.10;;;0.90;;
63536;SDS011;49686;51.880;5.632;2023-03-11T01:47:33;5.53;;;0.98;;
63536;SDS011;49686;51.880;5.632;2023-03-11T01:50:03;5.35;;;1.10;;
63536;SDS011;49686;51.880;5.632;2023-03-11T01:52:32;6.03;;;0.95;;
63536;SDS011;49686;51.880;5.632;2023-03-11T01:54:59;4.38;;;0.98;;
63536;SDS011;49686;51.880;5.632;2023-03-11T01:57:26;7.90;;;1.00;;
63536;SDS011;49686;51.880;5.632;2023-03-11T01:59:55;2.58;;;0.88;;
63536;SDS011;49686;51.880;5.632;2023-03-11T02:02:24;4.40;;;1.75;;
63536;SDS011;49686;51.880;5.632;2023-03-11T02:04:59;5.00;;;0.95;;
63536;SDS011;49686;51.880;5.632;2023-03-11T02:07:28;5.53;;;1.05;;
63536;SDS011;49686;51.880;5.632;2023-03-11T02:09:55;5.72;;;1.25;;
63536;SDS011;49686;51.880;5.632;2023-03-11T02:12:22;2.53;;;0.90;;
63536;SDS011;49686;51.880;5.632;2023-03-11T02:14:49;7.38;;;1.42;;
63536;SDS011;49686;51.880;5.632;2023-03-11T02:17:18;4.80;;;1.20;;
63536;SDS011;49686;51.880;5.632;2023-03-11T02:19:49;3.22;;;1.10;;
63536;SDS011;49686;51.880;5.632;2023-03-11T02:22:28;6.22;;;1.35;;
63536;SDS011;49686;51.880;5.632;2023-03-11T02:24:56;3.08;;;1.00;;
63536;SDS011;49686;51.880;5.632;2023-03-11T02:27:31;4.72;;;1.40;;
63536;SDS011;49686;51.880;5.632;2023-03-11T02:30:00;6.65;;;1.20;;
63536;SDS011;49686;51.880;5.632;2023-03-11T02:32:27;3.17;;;0.95;;
63536;SDS011;49686;51.880;5.632;2023-03-11T02:34:54;4.47;;;1.30;;
63536;SDS011;49686;51.880;5.632;2023-03-11T02:37:21;6.03;;;1.50;;
63536;SDS011;49686;51.880;5.632;2023-03-11T02:39:49;6.00;;;1.25;;
63536;SDS011;49686;51.880;5.632;2023-03-11T02:42:17;3.53;;;1.10;;
63536;SDS011;49686;51.880;5.632;2023-03-11T02:44:52;3.97;;;1.35;;
63536;SDS011;49686;51.880;5.632;2023-03-11T02:47:25;4.93;;;1.30;;
63536;SDS011;49686;51.880;5.632;2023-03-11T02:49:53;2.78;;;1.10;;
63536;SDS011;49686;51.880;5.632;2023-03-11T02:52:21;7.05;;;1.40;;
63536;SDS011;49686;51.880;5.632;2023-03-11T02:54:50;6.43;;;1.60;;
63536;SDS011;49686;51.880;5.632;2023-03-11T02:57:17;5.68;;;1.58;;
63536;SDS011;49686;51.880;5.632;2023-03-11T02:59:43;3.67;;;1.30;;
63536;SDS011;49686;51.880;5.632;2023-03-11T03:02:12;6.43;;;1.60;;
63536;SDS011;49686;51.880;5.632;2023-03-11T03:04:38;5.63;;;1.52;;
63536;SDS011;49686;51.880;5.632;2023-03-11T03:07:05;5.40;;;1.33;;
63536;SDS011;49686;51.880;5.632;2023-03-11T03:09:32;3.40;;;1.45;;
63536;SDS011;49686;51.880;5.632;2023-03-11T03:12:00;8.07;;;1.63;;
63536;SDS011;49686;51.880;5.632;2023-03-11T03:14:28;6.88;;;1.77;;
63536;SDS011;49686;51.880;5.632;2023-03-11T03:16:55;5.20;;;1.50;;
63536;SDS011;49686;51.880;5.632;2023-03-11T03:19:24;3.75;;;1.45;;
63536;SDS011;49686;51.880;5.632;2023-03-11T03:21:50;7.78;;;1.80;;
63536;SDS011;49686;51.880;5.632;2023-03-11T03:24:17;3.75;;;1.63;;
63536;SDS011;49686;51.880;5.632;2023-03-11T03:26:44;4.32;;;1.52;;
63536;SDS011;49686;51.880;5.632;2023-03-11T03:29:11;6.13;;;1.52;;
63536;SDS011;49686;51.880;5.632;2023-03-11T03:31:38;5.70;;;1.55;;
63536;SDS011;49686;51.880;5.632;2023-03-11T03:34:04;1.70;;;1.13;;
63536;SDS011;49686;51.880;5.632;2023-03-11T03:36:32;7.05;;;1.70;;
63536;SDS011;49686;51.880;5.632;2023-03-11T03:38:59;7.15;;;1.70;;
63536;SDS011;49686;51.880;5.632;2023-03-11T03:41:26;6.03;;;1.35;;
63536;SDS011;49686;51.880;5.632;2023-03-11T03:43:53;4.97;;;1.40;;
63536;SDS011;49686;51.880;5.632;2023-03-11T03:46:20;4.43;;;1.65;;
63536;SDS011;49686;51.880;5.632;2023-03-11T03:48:47;4.72;;;1.35;;
63536;SDS011;49686;51.880;5.632;2023-03-11T03:51:14;6.95;;;1.92;;
63536;SDS011;49686;51.880;5.632;2023-03-11T03:53:43;6.00;;;1.60;;
63536;SDS011;49686;51.880;5.632;2023-03-11T03:56:11;5.47;;;1.17;;
63536;SDS011;49686;51.880;5.632;2023-03-11T03:58:40;4.05;;;1.30;;
63536;SDS011;49686;51.880;5.632;2023-03-11T04:01:07;7.10;;;1.55;;
63536;SDS011;49686;51.880;5.632;2023-03-11T04:03:35;4.25;;;1.30;;
63536;SDS011;49686;51.880;5.632;2023-03-11T04:06:06;7.28;;;1.33;;
63536;SDS011;49686;51.880;5.632;2023-03-11T04:08:35;2.45;;;0.90;;
63536;SDS011;49686;51.880;5.632;2023-03-11T04:11:03;2.85;;;1.10;;
63536;SDS011;49686;51.880;5.632;2023-03-11T04:13:30;3.42;;;1.10;;
63536;SDS011;49686;51.880;5.632;2023-03-11T04:15:57;2.03;;;0.90;;
63536;SDS011;49686;51.880;5.632;2023-03-11T04:18:24;5.28;;;1.45;;
63536;SDS011;49686;51.880;5.632;2023-03-11T04:20:51;3.03;;;1.50;;
63536;SDS011;49686;51.880;5.632;2023-03-11T04:23:18;6.38;;;1.73;;
63536;SDS011;49686;51.880;5.632;2023-03-11T04:25:45;2.97;;;1.35;;
63536;SDS011;49686;51.880;5.632;2023-03-11T04:28:13;7.47;;;2.00;;
63536;SDS011;49686;51.880;5.632;2023-03-11T04:30:40;3.88;;;1.65;;
63536;SDS011;49686;51.880;5.632;2023-03-11T04:33:07;4.55;;;1.60;;
63536;SDS011;49686;51.880;5.632;2023-03-11T04:35:33;4.05;;;1.70;;
63536;SDS011;49686;51.880;5.632;2023-03-11T04:38:02;6.47;;;1.63;;
63536;SDS011;49686;51.880;5.632;2023-03-11T04:40:29;3.60;;;1.38;;
63536;SDS011;49686;51.880;5.632;2023-03-11T04:42:56;7.90;;;1.80;;
63536;SDS011;49686;51.880;5.632;2023-03-11T04:45:24;3.67;;;1.65;;
63536;SDS011;49686;51.880;5.632;2023-03-11T04:47:51;5.77;;;1.70;;
63536;SDS011;49686;51.880;5.632;2023-03-11T04:50:18;3.15;;;1.48;;
63536;SDS011;49686;51.880;5.632;2023-03-11T04:52:45;6.03;;;1.45;;
63536;SDS011;49686;51.880;5.632;2023-03-11T04:55:12;2.47;;;1.50;;
63536;SDS011;49686;51.880;5.632;2023-03-11T04:57:42;8.10;;;1.70;;
63536;SDS011;49686;51.880;5.632;2023-03-11T05:00:10;10.00;;;2.00;;
63536;SDS011;49686;51.880;5.632;2023-03-11T05:02:41;6.20;;;1.90;;
63536;SDS011;49686;51.880;5.632;2023-03-11T05:05:11;3.67;;;1.60;;
63536;SDS011;49686;51.880;5.632;2023-03-11T05:07:38;3.30;;;1.48;;
63536;SDS011;49686;51.880;5.632;2023-03-11T05:10:05;3.70;;;1.60;;
63536;SDS011;49686;51.880;5.632;2023-03-11T05:12:32;2.00;;;1.42;;
63536;SDS011;49686;51.880;5.632;2023-03-11T05:14:59;11.65;;;1.63;;
63536;SDS011;49686;51.880;5.632;2023-03-11T05:17:26;11.30;;;2.00;;
63536;SDS011;49686;51.880;5.632;2023-03-11T05:19:54;3.97;;;1.60;;
63536;SDS011;49686;51.880;5.632;2023-03-11T05:22:21;3.78;;;1.67;;
63536;SDS011;49686;51.880;5.632;2023-03-11T05:24:48;4.60;;;1.77;;
63536;SDS011;49686;51.880;5.632;2023-03-11T05:27:15;5.18;;;1.80;;
63536;SDS011;49686;51.880;5.632;2023-03-11T05:29:41;5.80;;;2.00;;
63536;SDS011;49686;51.880;5.632;2023-03-11T05:32:09;4.63;;;1.70;;
63536;SDS011;49686;51.880;5.632;2023-03-11T05:34:36;4.47;;;1.50;;
63536;SDS011;49686;51.880;5.632;2023-03-11T05:37:04;5.90;;;2.08;;
63536;SDS011;49686;51.880;5.632;2023-03-11T05:39:31;3.60;;;1.52;;
63536;SDS011;49686;51.880;5.632;2023-03-11T05:41:58;4.15;;;1.50;;
63536;SDS011;49686;51.880;5.632;2023-03-11T05:44:24;7.82;;;1.70;;
63536;SDS011;49686;51.880;5.632;2023-03-11T05:46:51;4.18;;;1.65;;
63536;SDS011;49686;51.880;5.632;2023-03-11T05:49:18;5.57;;;1.95;;
63536;SDS011;49686;51.880;5.632;2023-03-11T05:51:45;5.20;;;1.40;;
63536;SDS011;49686;51.880;5.632;2023-03-11T05:54:13;3.83;;;1.60;;
63536;SDS011;49686;51.880;5.632;2023-03-11T05:56:40;3.40;;;1.83;;
63536;SDS011;49686;51.880;5.632;2023-03-11T05:59:10;7.45;;;1.95;;
63536;SDS011;49686;51.880;5.632;2023-03-11T06:01:41;4.88;;;1.70;;
63536;SDS011;49686;51.880;5.632;2023-03-11T06:04:09;4.43;;;2.05;;
63536;SDS011;49686;51.880;5.632;2023-03-11T06:06:37;5.68;;;1.88;;
63536;SDS011;49686;51.880;5.632;2023-03-11T06:09:04;5.25;;;1.70;;
63536;SDS011;49686;51.880;5.632;2023-03-11T06:11:32;2.03;;;1.15;;
63536;SDS011;49686;51.880;5.632;2023-03-11T06:13:59;4.90;;;1.63;;
63536;SDS011;49686;51.880;5.632;2023-03-11T06:16:26;4.35;;;1.98;;
63536;SDS011;49686;51.880;5.632;2023-03-11T06:18:53;6.68;;;1.73;;
63536;SDS011;49686;51.880;5.632;2023-03-11T06:21:20;4.15;;;1.95;;
63536;SDS011;49686;51.880;5.632;2023-03-11T06:23:49;3.67;;;1.73;;
63536;SDS011;49686;51.880;5.632;2023-03-11T06:26:16;5.15;;;2.08;;
63536;SDS011;49686;51.880;5.632;2023-03-11T06:28:46;5.28;;;1.65;;
63536;SDS011;49686;51.880;5.632;2023-03-11T06:33:41;6.25;;;1.70;;
63536;SDS011;49686;51.880;5.632;2023-03-11T06:36:09;5.15;;;2.00;;
63536;SDS011;49686;51.880;5.632;2023-03-11T06:38:37;4.00;;;1.67;;
63536;SDS011;49686;51.880;5.632;2023-03-11T06:41:05;4.45;;;2.05;;
63536;SDS011;49686;51.880;5.632;2023-03-11T06:43:32;4.57;;;1.92;;
63536;SDS011;49686;51.880;5.632;2023-03-11T06:46:04;8.90;;;2.10;;
63536;SDS011;49686;51.880;5.632;2023-03-11T06:48:33;5.57;;;2.30;;
63536;SDS011;49686;51.880;5.632;2023-03-11T06:51:00;7.18;;;2.08;;
63536;SDS011;49686;51.880;5.632;2023-03-11T06:53:27;8.18;;;2.00;;
63536;SDS011;49686;51.880;5.632;2023-03-11T06:55:56;6.25;;;1.98;;
63536;SDS011;49686;51.880;5.632;2023-03-11T06:58:24;7.30;;;2.25;;
63536;SDS011;49686;51.880;5.632;2023-03-11T07:00:51;8.32;;;2.22;;
63536;SDS011;49686;51.880;5.632;2023-03-11T07:03:19;8.18;;;2.30;;
63536;SDS011;49686;51.880;5.632;2023-03-11T07:05:48;8.95;;;2.22;;
63536;SDS011;49686;51.880;5.632;2023-03-11T07:08:16;3.75;;;2.00;;
63536;SDS011;49686;51.880;5.632;2023-03-11T07:10:43;7.40;;;2.50;;
63536;SDS011;49686;51.880;5.632;2023-03-11T07:13:10;6.15;;;2.60;;
63536;SDS011;49686;51.880;5.632;2023-03-11T07:15:37;6.53;;;3.35;;
63536;SDS011;49686;51.880;5.632;2023-03-11T07:18:04;11.40;;;4.20;;
63536;SDS011;49686;51.880;5.632;2023-03-11T07:20:32;9.45;;;4.78;;
63536;SDS011;49686;51.880;5.632;2023-03-11T07:22:59;10.80;;;4.57;;
63536;SDS011;49686;51.880;5.632;2023-03-11T07:25:26;8.80;;;4.00;;
63536;SDS011;49686;51.880;5.632;2023-03-11T07:27:53;11.48;;;4.40;;
63536;SDS011;49686;51.880;5.632;2023-03-11T07:30:20;6.32;;;3.72;;
63536;SDS011;49686;51.880;5.632;2023-03-11T07:32:46;9.68;;;4.40;;
63536;SDS011;49686;51.880;5.632;2023-03-11T07:35:13;16.75;;;4.47;;
63536;SDS011;49686;51.880;5.632;2023-03-11T07:37:42;10.02;;;5.00;;
63536;SDS011;49686;51.880;5.632;2023-03-11T07:40:09;16.02;;;9.90;;
63536;SDS011;49686;51.880;5.632;2023-03-11T07:42:36;15.77;;;9.32;;
63536;SDS011;49686;51.880;5.632;2023-03-11T07:45:03;15.27;;;10.05;;
63536;SDS011;49686;51.880;5.632;2023-03-11T07:47:33;17.20;;;11.98;;
63536;SDS011;49686;51.880;5.632;2023-03-11T07:50:03;16.38;;;12.13;;
63536;SDS011;49686;51.880;5.632;2023-03-11T07:52:31;17.65;;;9.82;;
63536;SDS011;49686;51.880;5.632;2023-03-11T07:54:59;13.23;;;6.85;;
63536;SDS011;49686;51.880;5.632;2023-03-11T07:57:26;11.73;;;4.82;;
63536;SDS011;49686;51.880;5.632;2023-03-11T07:59:53;10.50;;;3.78;;
63536;SDS011;49686;51.880;5.632;2023-03-11T08:02:19;8.73;;;4.07;;
63536;SDS011;49686;51.880;5.632;2023-03-11T08:04:46;10.43;;;3.67;;
63536;SDS011;49686;51.880;5.632;2023-03-11T08:07:13;10.85;;;2.80;;
63536;SDS011;49686;51.880;5.632;2023-03-11T08:09:40;3.90;;;2.60;;
63536;SDS011;49686;51.880;5.632;2023-03-11T08:12:08;5.45;;;2.55;;
63536;SDS011;49686;51.880;5.632;2023-03-11T08:14:35;5.50;;;2.33;;
63536;SDS011;49686;51.880;5.632;2023-03-11T08:17:02;6.80;;;2.53;;
63536;SDS011;49686;51.880;5.632;2023-03-11T08:19:29;3.85;;;2.00;;
63536;SDS011;49686;51.880;5.632;2023-03-11T08:21:56;5.93;;;2.47;;
63536;SDS011;49686;51.880;5.632;2023-03-11T08:24:23;7.22;;;2.45;;
63536;SDS011;49686;51.880;5.632;2023-03-11T08:26:50;4.47;;;2.05;;
63536;SDS011;49686;51.880;5.632;2023-03-11T08:29:18;6.18;;;2.00;;
63536;SDS011;49686;51.880;5.632;2023-03-11T08:31:45;4.00;;;2.20;;
63536;SDS011;49686;51.880;5.632;2023-03-11T08:34:12;5.25;;;2.20;;
63536;SDS011;49686;51.880;5.632;2023-03-11T08:36:40;4.95;;;2.13;;
63536;SDS011;49686;51.880;5.632;2023-03-11T08:39:07;5.72;;;3.28;;
63536;SDS011;49686;51.880;5.632;2023-03-11T08:41:34;4.95;;;2.13;;
63536;SDS011;49686;51.880;5.632;2023-03-11T08:44:01;4.47;;;1.98;;
63536;SDS011;49686;51.880;5.632;2023-03-11T08:46:30;3.33;;;2.22;;
63536;SDS011;49686;51.880;5.632;2023-03-11T08:48:58;6.20;;;2.70;;
63536;SDS011;49686;51.880;5.632;2023-03-11T08:51:27;4.85;;;2.88;;
63536;SDS011;49686;51.880;5.632;2023-03-11T08:53:54;3.85;;;2.20;;
63536;SDS011;49686;51.880;5.632;2023-03-11T08:56:21;4.28;;;2.40;;
63536;SDS011;49686;51.880;5.632;2023-03-11T08:58:48;6.93;;;2.55;;
63536;SDS011;49686;51.880;5.632;2023-03-11T09:01:16;7.97;;;2.15;;
63536;SDS011;49686;51.880;5.632;2023-03-11T09:03:47;8.07;;;2.03;;
63536;SDS011;49686;51.880;5.632;2023-03-11T09:06:14;3.58;;;1.70;;
63536;SDS011;49686;51.880;5.632;2023-03-11T09:08:42;3.78;;;1.95;;
63536;SDS011;49686;51.880;5.632;2023-03-11T09:11:10;5.20;;;2.10;;
63536;SDS011;49686;51.880;5.632;2023-03-11T09:13:39;3.53;;;1.73;;
63536;SDS011;49686;51.880;5.632;2023-03-11T09:16:07;9.00;;;2.22;;
63536;SDS011;49686;51.880;5.632;2023-03-11T09:18:37;5.32;;;2.13;;
63536;SDS011;49686;51.880;5.632;2023-03-11T09:21:05;5.82;;;2.10;;
63536;SDS011;49686;51.880;5.632;2023-03-11T09:23:34;3.45;;;1.42;;
63536;SDS011;49686;51.880;5.632;2023-03-11T09:26:01;3.27;;;1.40;;
63536;SDS011;49686;51.880;5.632;2023-03-11T09:28:27;3.22;;;1.33;;
63536;SDS011;49686;51.880;5.632;2023-03-11T09:30:54;4.05;;;1.50;;
63536;SDS011;49686;51.880;5.632;2023-03-11T09:33:21;5.00;;;1.60;;
63536;SDS011;49686;51.880;5.632;2023-03-11T09:35:48;2.53;;;1.25;;
63536;SDS011;49686;51.880;5.632;2023-03-11T09:38:17;4.40;;;1.23;;
63536;SDS011;49686;51.880;5.632;2023-03-11T09:40:50;5.25;;;0.90;;
63536;SDS011;49686;51.880;5.632;2023-03-11T09:43:25;5.65;;;1.10;;
63536;SDS011;49686;51.880;5.632;2023-03-11T09:46:03;4.00;;;1.27;;
63536;SDS011;49686;51.880;5.632;2023-03-11T09:48:40;5.25;;;1.20;;
63536;SDS011;49686;51.880;5.632;2023-03-11T09:51:11;3.30;;;1.08;;
63536;SDS011;49686;51.880;5.632;2023-03-11T09:53:44;4.18;;;1.00;;
63536;SDS011;49686;51.880;5.632;2023-03-11T09:56:12;3.35;;;0.80;;
63536;SDS011;49686;51.880;5.632;2023-03-11T09:58:43;2.33;;;0.88;;
63536;SDS011;49686;51.880;5.632;2023-03-11T10:01:14;6.88;;;1.20;;
63536;SDS011;49686;51.880;5.632;2023-03-11T10:03:46;3.50;;;0.80;;
63536;SDS011;49686;51.880;5.632;2023-03-11T10:06:16;2.00;;;0.95;;
63536;SDS011;49686;51.880;5.632;2023-03-11T10:08:50;3.20;;;0.85;;
63536;SDS011;49686;51.880;5.632;2023-03-11T10:11:28;5.97;;;1.10;;
63536;SDS011;49686;51.880;5.632;2023-03-11T10:14:10;2.95;;;1.10;;
63536;SDS011;49686;51.880;5.632;2023-03-11T10:16:49;5.97;;;1.55;;
63536;SDS011;49686;51.880;5.632;2023-03-11T10:19:24;1.83;;;0.80;;
63536;SDS011;49686;51.880;5.632;2023-03-11T10:22:01;3.58;;;2.10;;
63536;SDS011;49686;51.880;5.632;2023-03-11T10:24:42;2.45;;;1.95;;
63536;SDS011;49686;51.880;5.632;2023-03-11T10:27:19;4.20;;;1.50;;
63536;SDS011;49686;51.880;5.632;2023-03-11T10:29:55;6.90;;;1.30;;
63536;SDS011;49686;51.880;5.632;2023-03-11T10:32:31;4.00;;;0.98;;
63536;SDS011;49686;51.880;5.632;2023-03-11T10:35:04;2.15;;;1.05;;
63536;SDS011;49686;51.880;5.632;2023-03-11T10:37:41;4.38;;;0.88;;
63536;SDS011;49686;51.880;5.632;2023-03-11T10:40:20;2.40;;;0.73;;
63536;SDS011;49686;51.880;5.632;2023-03-11T10:42:51;1.77;;;0.75;;
63536;SDS011;49686;51.880;5.632;2023-03-11T10:45:20;3.17;;;0.80;;
63536;SDS011;49686;51.880;5.632;2023-03-11T10:47:48;1.73;;;0.70;;
63536;SDS011;49686;51.880;5.632;2023-03-11T10:50:16;3.85;;;0.75;;
63536;SDS011;49686;51.880;5.632;2023-03-11T10:52:45;5.95;;;0.88;;
63536;SDS011;49686;51.880;5.632;2023-03-11T10:55:32;2.20;;;0.80;;
63536;SDS011;49686;51.880;5.632;2023-03-11T10:58:03;5.47;;;0.90;;
63536;SDS011;49686;51.880;5.632;2023-03-11T11:00:31;4.60;;;1.23;;
63536;SDS011;49686;51.880;5.632;2023-03-11T11:02:58;2.20;;;0.75;;
63536;SDS011;49686;51.880;5.632;2023-03-11T11:05:27;5.18;;;0.90;;
63536;SDS011;49686;51.880;5.632;2023-03-11T11:08:03;2.13;;;1.00;;
63536;SDS011;49686;51.880;5.632;2023-03-11T11:10:33;4.35;;;0.90;;
63536;SDS011;49686;51.880;5.632;2023-03-11T11:13:02;4.38;;;1.10;;
63536;SDS011;49686;51.880;5.632;2023-03-11T11:15:42;4.45;;;2.00;;
63536;SDS011;49686;51.880;5.632;2023-03-11T11:18:18;2.65;;;0.90;;
63536;SDS011;49686;51.880;5.632;2023-03-11T11:20:55;4.85;;;1.05;;
63536;SDS011;49686;51.880;5.632;2023-03-11T11:23:27;3.10;;;0.70;;
63536;SDS011;49686;51.880;5.632;2023-03-11T11:25:59;5.10;;;0.80;;
63536;SDS011;49686;51.880;5.632;2023-03-11T11:28:28;5.55;;;0.70;;
63536;SDS011;49686;51.880;5.632;2023-03-11T11:30:56;2.35;;;0.60;;
63536;SDS011;49686;51.880;5.632;2023-03-11T11:33:25;2.78;;;0.80;;
63536;SDS011;49686;51.880;5.632;2023-03-11T11:35:55;4.40;;;0.90;;
63536;SDS011;49686;51.880;5.632;2023-03-11T11:38:25;3.92;;;0.70;;
63536;SDS011;49686;51.880;5.632;2023-03-11T11:40:54;2.58;;;0.60;;
63536;SDS011;49686;51.880;5.632;2023-03-11T11:43:27;2.67;;;0.60;;
63536;SDS011;49686;51.880;5.632;2023-03-11T11:46:09;1.75;;;0.73;;
63536;SDS011;49686;51.880;5.632;2023-03-11T11:48:46;1.70;;;0.50;;
63536;SDS011;49686;51.880;5.632;2023-03-11T11:51:17;3.05;;;0.70;;
63536;SDS011;49686;51.880;5.632;2023-03-11T11:53:47;2.42;;;1.25;;
63536;SDS011;49686;51.880;5.632;2023-03-11T11:56:17;2.63;;;0.70;;
63536;SDS011;49686;51.880;5.632;2023-03-11T11:58:48;1.90;;;0.82;;
63536;SDS011;49686;51.880;5.632;2023-03-11T12:01:16;1.40;;;0.73;;
63536;SDS011;49686;51.880;5.632;2023-03-11T12:04:02;3.13;;;0.68;;
63536;SDS011;49686;51.880;5.632;2023-03-11T12:06:46;3.80;;;1.00;;
63536;SDS011;49686;51.880;5.632;2023-03-11T12:09:21;3.88;;;0.90;;
63536;SDS011;49686;51.880;5.632;2023-03-11T12:11:52;3.00;;;1.00;;
63536;SDS011;49686;51.880;5.632;2023-03-11T12:14:25;5.15;;;0.90;;
63536;SDS011;49686;51.880;5.632;2023-03-11T12:17:00;2.90;;;0.90;;
63536;SDS011;49686;51.880;5.632;2023-03-11T12:19:32;4.15;;;1.17;;
63536;SDS011;49686;51.880;5.632;2023-03-11T12:22:09;2.08;;;0.82;;
63536;SDS011;49686;51.880;5.632;2023-03-11T12:25:18;3.67;;;0.80;;
63536;SDS011;49686;51.880;5.632;2023-03-11T12:27:53;3.50;;;0.68;;
63536;SDS011;49686;51.880;5.632;2023-03-11T12:30:28;1.75;;;0.90;;
63536;SDS011;49686;51.880;5.632;2023-03-11T12:32:59;2.28;;;0.98;;
63536;SDS011;49686;51.880;5.632;2023-03-11T12:35:29;2.88;;;0.80;;
63536;SDS011;49686;51.880;5.632;2023-03-11T12:40:50;2.22;;;0.65;;
63536;SDS011;49686;51.880;5.632;2023-03-11T12:43:27;3.20;;;0.80;;
63536;SDS011;49686;51.880;5.632;2023-03-11T12:48:43;2.50;;;0.65;;
63536;SDS011;49686;51.880;5.632;2023-03-11T12:54:19;1.60;;;0.70;;
63536;SDS011;49686;51.880;5.632;2023-03-11T12:56:53;0.80;;;0.60;;
63536;SDS011;49686;51.880;5.632;2023-03-11T12:59:31;2.38;;;0.57;;
63536;SDS011;49686;51.880;5.632;2023-03-11T13:02:24;2.63;;;1.00;;
63536;SDS011;49686;51.880;5.632;2023-03-11T13:05:05;2.25;;;0.70;;
63536;SDS011;49686;51.880;5.632;2023-03-11T13:07:40;3.88;;;1.10;;
63536;SDS011;49686;51.880;5.632;2023-03-11T13:10:16;3.78;;;1.10;;
63536;SDS011;49686;51.880;5.632;2023-03-11T13:12:46;3.03;;;1.10;;
63536;SDS011;49686;51.880;5.632;2023-03-11T13:15:32;3.10;;;1.70;;
63536;SDS011;49686;51.880;5.632;2023-03-11T13:18:11;4.25;;;1.02;;
63536;SDS011;49686;51.880;5.632;2023-03-11T13:20:46;2.88;;;1.40;;
63536;SDS011;49686;51.880;5.632;2023-03-11T13:23:21;3.72;;;0.85;;
63536;SDS011;49686;51.880;5.632;2023-03-11T13:31:50;3.33;;;0.90;;
63536;SDS011;49686;51.880;5.632;2023-03-11T13:34:30;4.10;;;0.98;;
63536;SDS011;49686;51.880;5.632;2023-03-11T13:37:09;1.13;;;0.65;;
63536;SDS011;49686;51.880;5.632;2023-03-11T13:39:48;1.75;;;0.60;;
63536;SDS011;49686;51.880;5.632;2023-03-11T13:42:25;4.07;;;0.80;;
63536;SDS011;49686;51.880;5.632;2023-03-11T13:44:54;1.83;;;0.73;;
63536;SDS011;49686;51.880;5.632;2023-03-11T13:47:22;2.60;;;0.80;;
63536;SDS011;49686;51.880;5.632;2023-03-11T13:49:53;1.73;;;0.88;;
63536;SDS011;49686;51.880;5.632;2023-03-11T13:52:26;2.10;;;1.42;;
63536;SDS011;49686;51.880;5.632;2023-03-11T13:54:58;2.67;;;1.08;;
63536;SDS011;49686;51.880;5.632;2023-03-11T13:57:28;3.00;;;1.00;;
63536;SDS011;49686;51.880;5.632;2023-03-11T14:00:03;2.00;;;1.63;;
63536;SDS011;49686;51.880;5.632;2023-03-11T14:02:31;3.67;;;0.82;;
63536;SDS011;49686;51.880;5.632;2023-03-11T14:05:03;1.98;;;0.85;;
63536;SDS011;49686;51.880;5.632;2023-03-11T14:07:32;1.90;;;1.55;;
63536;SDS011;49686;51.880;5.632;2023-03-11T14:10:16;3.75;;;1.63;;
63536;SDS011;49686;51.880;5.632;2023-03-11T14:12:45;1.75;;;0.90;;
63536;SDS011;49686;51.880;5.632;2023-03-11T14:15:13;2.70;;;1.25;;
63536;SDS011;49686;51.880;5.632;2023-03-11T14:17:43;2.90;;;0.93;;
63536;SDS011;49686;51.880;5.632;2023-03-11T14:20:15;1.85;;;0.75;;
63536;SDS011;49686;51.880;5.632;2023-03-11T14:22:44;3.42;;;0.80;;
63536;SDS011;49686;51.880;5.632;2023-03-11T14:25:15;4.40;;;1.00;;
63536;SDS011;49686;51.880;5.632;2023-03-11T14:27:49;3.20;;;0.82;;
63536;SDS011;49686;51.880;5.632;2023-03-11T14:30:20;1.65;;;0.60;;
63536;SDS011;49686;51.880;5.632;2023-03-11T14:33:00;1.20;;;0.70;;
63536;SDS011;49686;51.880;5.632;2023-03-11T14:35:30;1.25;;;0.68;;
63536;SDS011;49686;51.880;5.632;2023-03-11T14:37:58;1.83;;;0.80;;
63536;SDS011;49686;51.880;5.632;2023-03-11T14:40:26;1.90;;;0.75;;
63536;SDS011;49686;51.880;5.632;2023-03-11T14:42:56;1.65;;;0.52;;
63536;SDS011;49686;51.880;5.632;2023-03-11T14:45:26;3.20;;;1.15;;
63536;SDS011;49686;51.880;5.632;2023-03-11T14:47:55;4.28;;;0.93;;
63536;SDS011;49686;51.880;5.632;2023-03-11T14:50:28;3.33;;;0.90;;
63536;SDS011;49686;51.880;5.632;2023-03-11T14:53:01;3.50;;;1.02;;
63536;SDS011;49686;51.880;5.632;2023-03-11T14:55:31;2.42;;;0.85;;
63536;SDS011;49686;51.880;5.632;2023-03-11T15:02:59;2.10;;;1.00;;
63536;SDS011;49686;51.880;5.632;2023-03-11T15:05:36;2.90;;;0.70;;
63536;SDS011;49686;51.880;5.632;2023-03-11T15:08:09;0.63;;;0.50;;
63536;SDS011;49686;51.880;5.632;2023-03-11T15:10:35;1.58;;;0.60;;
63536;SDS011;49686;51.880;5.632;2023-03-11T15:13:08;3.30;;;0.70;;
63536;SDS011;49686;51.880;5.632;2023-03-11T15:15:42;2.08;;;0.70;;
63536;SDS011;49686;51.880;5.632;2023-03-11T15:21:10;1.83;;;1.25;;
63536;SDS011;49686;51.880;5.632;2023-03-11T15:23:43;2.92;;;0.60;;
63536;SDS011;49686;51.880;5.632;2023-03-11T15:26:19;2.22;;;1.25;;
63536;SDS011;49686;51.880;5.632;2023-03-11T15:28:51;1.83;;;1.23;;